sensor_id;sensor_type;location;lat;lon;timestamp;P1;durP1;ratioP1;P2;durP2;ratioP2
44670;SDS011;48397;53.016;-2.260;2023-05-14T00:00:31;41.17;;;21.05;;
44670;SDS011;48397;53.016;-2.260;2023-05-14T00:02:59;44.95;;;22.67;;
44670;SDS011;48397;53.016;-2.260;2023-05-14T00:05:27;41.17;;;22.50;;
44670;SDS011;48397;53.016;-2.260;2023-05-14T00:07:54;42.70;;;21.80;;
44670;SDS011;48397;53.016;-2.260;2023-05-14T00:10:22;40.75;;;21.98;;
44670;SDS011;48397;53.016;-2.260;2023-05-14T00:12:51;40.47;;;21.75;;
44670;SDS011;48397;53.016;-2.260;2023-05-14T00:15:19;47.33;;;22.15;;
44670;SDS011;48397;53.016;-2.260;2023-05-14T00:17:48;39.33;;;21.75;;
44670;SDS011;48397;53.016;-2.260;2023-05-14T00:22:43;41.33;;;21.00;;
44670;SDS011;48397;53.016;-2.260;2023-05-14T00:25:10;44.17;;;22.92;;
44670;SDS011;48397;53.016;-2.260;2023-05-14T00:27:38;44.90;;;23.65;;
44670;SDS011;48397;53.016;-2.260;2023-05-14T00:30:06;42.95;;;22.17;;
44670;SDS011;48397;53.016;-2.260;2023-05-14T00:32:34;45.60;;;22.02;;
44670;SDS011;48397;53.016;-2.260;2023-05-14T00:35:02;48.45;;;24.13;;
44670;SDS011;48397;53.016;-2.260;2023-05-14T00:37:30;44.90;;;23.20;;
44670;SDS011;48397;53.016;-2.260;2023-05-14T00:39:58;54.92;;;24.75;;
44670;SDS011;48397;53.016;-2.260;2023-05-14T00:42:26;47.20;;;23.77;;
44670;SDS011;48397;53.016;-2.260;2023-05-14T00:44:54;46.38;;;23.92;;
44670;SDS011;48397;53.016;-2.260;2023-05-14T00:47:21;51.28;;;24.30;;
44670;SDS011;48397;53.016;-2.260;2023-05-14T00:49:50;46.42;;;23.85;;
44670;SDS011;48397;53.016;-2.260;2023-05-14T00:52:18;48.47;;;23.85;;
44670;SDS011;48397;53.016;-2.260;2023-05-14T00:54:46;47.15;;;24.42;;
44670;SDS011;48397;53.016;-2.260;2023-05-14T00:57:15;48.85;;;26.05;;
44670;SDS011;48397;53.016;-2.260;2023-05-14T00:59:45;48.08;;;23.23;;
44670;SDS011;48397;53.016;-2.260;2023-05-14T01:02:15;48.85;;;24.63;;
44670;SDS011;48397;53.016;-2.260;2023-05-14T01:04:43;44.65;;;23.50;;
44670;SDS011;48397;53.016;-2.260;2023-05-14T01:07:32;51.55;;;24.77;;
44670;SDS011;48397;53.016;-2.260;2023-05-14T01:15:28;49.47;;;25.30;;
44670;SDS011;48397;53.016;-2.260;2023-05-14T01:17:58;47.78;;;23.52;;
44670;SDS011;48397;53.016;-2.260;2023-05-14T01:20:39;46.75;;;24.95;;
44670;SDS011;48397;53.016;-2.260;2023-05-14T01:23:07;49.55;;;25.67;;
44670;SDS011;48397;53.016;-2.260;2023-05-14T01:25:37;51.92;;;23.55;;
44670;SDS011;48397;53.016;-2.260;2023-05-14T01:28:16;50.95;;;23.35;;
44670;SDS011;48397;53.016;-2.260;2023-05-14T01:30:51;50.22;;;24.52;;
44670;SDS011;48397;53.016;-2.260;2023-05-14T01:33:23;47.65;;;23.75;;
44670;SDS011;48397;53.016;-2.260;2023-05-14T01:35:53;50.67;;;23.88;;
44670;SDS011;48397;53.016;-2.260;2023-05-14T01:38:22;48.45;;;25.27;;
44670;SDS011;48397;53.016;-2.260;2023-05-14T01:40:50;47.45;;;24.10;;
44670;SDS011;48397;53.016;-2.260;2023-05-14T01:43:20;51.03;;;25.58;;
44670;SDS011;48397;53.016;-2.260;2023-05-14T01:45:49;50.30;;;24.73;;
44670;SDS011;48397;53.016;-2.260;2023-05-14T01:48:17;45.15;;;22.35;;
44670;SDS011;48397;53.016;-2.260;2023-05-14T01:50:45;48.33;;;25.58;;
44670;SDS011;48397;53.016;-2.260;2023-05-14T01:53:12;49.97;;;24.42;;
44670;SDS011;48397;53.016;-2.260;2023-05-14T01:55:40;48.33;;;23.02;;
44670;SDS011;48397;53.016;-2.260;2023-05-14T01:58:08;50.13;;;24.65;;
44670;SDS011;48397;53.016;-2.260;2023-05-14T02:00:36;50.83;;;24.77;;
44670;SDS011;48397;53.016;-2.260;2023-05-14T02:03:04;52.22;;;25.05;;
44670;SDS011;48397;53.016;-2.260;2023-05-14T02:05:32;53.10;;;26.05;;
44670;SDS011;48397;53.016;-2.260;2023-05-14T02:07:59;52.47;;;24.77;;
44670;SDS011;48397;53.016;-2.260;2023-05-14T02:10:27;53.25;;;26.30;;
44670;SDS011;48397;53.016;-2.260;2023-05-14T02:12:55;54.15;;;25.75;;
44670;SDS011;48397;53.016;-2.260;2023-05-14T02:15:22;56.00;;;27.00;;
44670;SDS011;48397;53.016;-2.260;2023-05-14T02:17:50;50.90;;;24.67;;
44670;SDS011;48397;53.016;-2.260;2023-05-14T02:20:18;51.70;;;24.95;;
44670;SDS011;48397;53.016;-2.260;2023-05-14T02:22:46;50.70;;;23.60;;
44670;SDS011;48397;53.016;-2.260;2023-05-14T02:25:14;47.45;;;23.00;;
44670;SDS011;48397;53.016;-2.260;2023-05-14T02:27:42;46.03;;;23.23;;
44670;SDS011;48397;53.016;-2.260;2023-05-14T02:30:11;52.33;;;24.92;;
44670;SDS011;48397;53.016;-2.260;2023-05-14T02:32:39;56.05;;;26.35;;
44670;SDS011;48397;53.016;-2.260;2023-05-14T02:37:34;51.40;;;22.67;;
44670;SDS011;48397;53.016;-2.260;2023-05-14T02:40:02;47.83;;;23.23;;
44670;SDS011;48397;53.016;-2.260;2023-05-14T02:42:31;54.00;;;24.50;;
44670;SDS011;48397;53.016;-2.260;2023-05-14T02:44:59;52.53;;;24.73;;
44670;SDS011;48397;53.016;-2.260;2023-05-14T02:47:26;50.70;;;24.23;;
44670;SDS011;48397;53.016;-2.260;2023-05-14T02:49:54;49.03;;;23.20;;
44670;SDS011;48397;53.016;-2.260;2023-05-14T02:52:22;53.97;;;26.25;;
44670;SDS011;48397;53.016;-2.260;2023-05-14T02:54:50;53.75;;;25.17;;
44670;SDS011;48397;53.016;-2.260;2023-05-14T02:57:17;46.90;;;22.42;;
44670;SDS011;48397;53.016;-2.260;2023-05-14T02:59:45;55.15;;;26.55;;
44670;SDS011;48397;53.016;-2.260;2023-05-14T03:02:13;60.90;;;25.98;;
44670;SDS011;48397;53.016;-2.260;2023-05-14T03:04:41;58.97;;;26.33;;
44670;SDS011;48397;53.016;-2.260;2023-05-14T03:07:09;56.33;;;26.05;;
44670;SDS011;48397;53.016;-2.260;2023-05-14T03:09:37;51.30;;;23.88;;
44670;SDS011;48397;53.016;-2.260;2023-05-14T03:12:05;51.15;;;23.55;;
44670;SDS011;48397;53.016;-2.260;2023-05-14T03:14:33;58.00;;;27.27;;
44670;SDS011;48397;53.016;-2.260;2023-05-14T03:17:00;65.65;;;29.48;;
44670;SDS011;48397;53.016;-2.260;2023-05-14T03:19:30;66.43;;;28.90;;
44670;SDS011;48397;53.016;-2.260;2023-05-14T03:21:57;75.70;;;31.00;;
44670;SDS011;48397;53.016;-2.260;2023-05-14T03:24:25;76.72;;;31.58;;
44670;SDS011;48397;53.016;-2.260;2023-05-14T03:26:53;70.82;;;30.02;;
44670;SDS011;48397;53.016;-2.260;2023-05-14T03:29:20;68.38;;;29.52;;
44670;SDS011;48397;53.016;-2.260;2023-05-14T03:31:48;63.92;;;28.27;;
44670;SDS011;48397;53.016;-2.260;2023-05-14T03:34:16;70.25;;;30.52;;
44670;SDS011;48397;53.016;-2.260;2023-05-14T03:36:44;68.45;;;28.52;;
44670;SDS011;48397;53.016;-2.260;2023-05-14T03:39:12;59.72;;;27.70;;
44670;SDS011;48397;53.016;-2.260;2023-05-14T03:41:46;69.63;;;29.27;;
44670;SDS011;48397;53.016;-2.260;2023-05-14T03:44:14;74.20;;;29.73;;
44670;SDS011;48397;53.016;-2.260;2023-05-14T03:46:41;73.53;;;31.23;;
44670;SDS011;48397;53.016;-2.260;2023-05-14T03:49:09;78.45;;;31.90;;
44670;SDS011;48397;53.016;-2.260;2023-05-14T03:51:37;75.63;;;30.30;;
44670;SDS011;48397;53.016;-2.260;2023-05-14T03:56:32;66.72;;;28.10;;
44670;SDS011;48397;53.016;-2.260;2023-05-14T03:59:00;75.90;;;31.52;;
44670;SDS011;48397;53.016;-2.260;2023-05-14T04:01:28;75.10;;;29.65;;
44670;SDS011;48397;53.016;-2.260;2023-05-14T04:03:57;75.15;;;31.58;;
44670;SDS011;48397;53.016;-2.260;2023-05-14T04:08:53;72.10;;;30.40;;
44670;SDS011;48397;53.016;-2.260;2023-05-14T04:11:21;76.18;;;30.60;;
44670;SDS011;48397;53.016;-2.260;2023-05-14T04:13:49;69.30;;;30.00;;
44670;SDS011;48397;53.016;-2.260;2023-05-14T04:16:16;68.75;;;30.02;;
44670;SDS011;48397;53.016;-2.260;2023-05-14T04:18:44;71.57;;;28.75;;
44670;SDS011;48397;53.016;-2.260;2023-05-14T04:21:12;64.18;;;28.42;;
44670;SDS011;48397;53.016;-2.260;2023-05-14T04:23:40;74.72;;;29.40;;
44670;SDS011;48397;53.016;-2.260;2023-05-14T04:26:07;76.20;;;31.40;;
44670;SDS011;48397;53.016;-2.260;2023-05-14T04:28:35;83.38;;;32.45;;
44670;SDS011;48397;53.016;-2.260;2023-05-14T04:31:03;86.32;;;34.15;;
44670;SDS011;48397;53.016;-2.260;2023-05-14T04:33:30;89.53;;;34.83;;
44670;SDS011;48397;53.016;-2.260;2023-05-14T04:35:58;89.72;;;35.47;;
44670;SDS011;48397;53.016;-2.260;2023-05-14T04:38:26;93.05;;;35.60;;
44670;SDS011;48397;53.016;-2.260;2023-05-14T04:40:54;89.05;;;34.38;;
44670;SDS011;48397;53.016;-2.260;2023-05-14T04:43:21;85.53;;;35.20;;
44670;SDS011;48397;53.016;-2.260;2023-05-14T04:45:49;78.65;;;31.20;;
44670;SDS011;48397;53.016;-2.260;2023-05-14T04:48:18;86.07;;;33.67;;
44670;SDS011;48397;53.016;-2.260;2023-05-14T04:50:46;86.28;;;34.35;;
44670;SDS011;48397;53.016;-2.260;2023-05-14T04:53:14;69.97;;;31.02;;
44670;SDS011;48397;53.016;-2.260;2023-05-14T04:55:42;84.68;;;33.95;;
44670;SDS011;48397;53.016;-2.260;2023-05-14T04:58:09;80.78;;;32.53;;
44670;SDS011;48397;53.016;-2.260;2023-05-14T05:00:37;80.53;;;33.45;;
44670;SDS011;48397;53.016;-2.260;2023-05-14T05:03:06;73.00;;;30.85;;
44670;SDS011;48397;53.016;-2.260;2023-05-14T05:05:34;66.65;;;30.75;;
44670;SDS011;48397;53.016;-2.260;2023-05-14T05:08:02;70.18;;;29.73;;
44670;SDS011;48397;53.016;-2.260;2023-05-14T05:10:30;67.78;;;29.80;;
44670;SDS011;48397;53.016;-2.260;2023-05-14T05:12:58;59.65;;;27.35;;
44670;SDS011;48397;53.016;-2.260;2023-05-14T05:15:26;64.90;;;29.08;;
44670;SDS011;48397;53.016;-2.260;2023-05-14T05:17:53;66.90;;;29.35;;
44670;SDS011;48397;53.016;-2.260;2023-05-14T05:20:21;62.10;;;27.85;;
44670;SDS011;48397;53.016;-2.260;2023-05-14T05:22:49;62.63;;;28.38;;
44670;SDS011;48397;53.016;-2.260;2023-05-14T05:25:18;62.72;;;28.50;;
44670;SDS011;48397;53.016;-2.260;2023-05-14T05:27:46;64.28;;;29.65;;
44670;SDS011;48397;53.016;-2.260;2023-05-14T05:30:13;63.15;;;28.38;;
44670;SDS011;48397;53.016;-2.260;2023-05-14T05:32:41;65.40;;;27.58;;
44670;SDS011;48397;53.016;-2.260;2023-05-14T05:35:09;62.30;;;29.30;;
44670;SDS011;48397;53.016;-2.260;2023-05-14T05:37:37;64.78;;;29.00;;
44670;SDS011;48397;53.016;-2.260;2023-05-14T05:40:04;63.60;;;28.85;;
44670;SDS011;48397;53.016;-2.260;2023-05-14T05:42:33;66.93;;;27.65;;
44670;SDS011;48397;53.016;-2.260;2023-05-14T05:45:00;63.60;;;28.02;;
44670;SDS011;48397;53.016;-2.260;2023-05-14T05:47:30;62.55;;;27.52;;
44670;SDS011;48397;53.016;-2.260;2023-05-14T05:49:58;66.55;;;28.45;;
44670;SDS011;48397;53.016;-2.260;2023-05-14T05:52:25;60.65;;;26.15;;
44670;SDS011;48397;53.016;-2.260;2023-05-14T05:54:53;57.67;;;26.35;;
44670;SDS011;48397;53.016;-2.260;2023-05-14T05:57:21;59.33;;;24.60;;
44670;SDS011;48397;53.016;-2.260;2023-05-14T05:59:52;58.05;;;26.40;;
44670;SDS011;48397;53.016;-2.260;2023-05-14T06:02:20;57.08;;;24.88;;
44670;SDS011;48397;53.016;-2.260;2023-05-14T06:07:15;56.83;;;24.55;;
44670;SDS011;48397;53.016;-2.260;2023-05-14T06:09:43;66.57;;;29.73;;
44670;SDS011;48397;53.016;-2.260;2023-05-14T06:12:12;55.00;;;26.00;;
44670;SDS011;48397;53.016;-2.260;2023-05-14T06:14:40;52.97;;;24.08;;
44670;SDS011;48397;53.016;-2.260;2023-05-14T06:17:08;58.60;;;26.60;;
44670;SDS011;48397;53.016;-2.260;2023-05-14T06:19:36;55.65;;;26.20;;
44670;SDS011;48397;53.016;-2.260;2023-05-14T06:24:31;54.65;;;24.45;;
44670;SDS011;48397;53.016;-2.260;2023-05-14T06:26:59;54.15;;;25.33;;
44670;SDS011;48397;53.016;-2.260;2023-05-14T06:29:26;51.50;;;25.40;;
44670;SDS011;48397;53.016;-2.260;2023-05-14T06:31:55;50.28;;;23.98;;
44670;SDS011;48397;53.016;-2.260;2023-05-14T06:34:27;49.58;;;24.42;;
44670;SDS011;48397;53.016;-2.260;2023-05-14T06:36:55;47.90;;;21.98;;
44670;SDS011;48397;53.016;-2.260;2023-05-14T06:39:23;44.17;;;21.05;;
44670;SDS011;48397;53.016;-2.260;2023-05-14T06:41:51;48.55;;;22.52;;
44670;SDS011;48397;53.016;-2.260;2023-05-14T06:44:20;48.45;;;23.05;;
44670;SDS011;48397;53.016;-2.260;2023-05-14T06:46:47;50.03;;;21.45;;
44670;SDS011;48397;53.016;-2.260;2023-05-14T06:49:15;47.90;;;22.73;;
44670;SDS011;48397;53.016;-2.260;2023-05-14T06:51:44;45.15;;;21.77;;
44670;SDS011;48397;53.016;-2.260;2023-05-14T06:54:12;44.30;;;22.98;;
44670;SDS011;48397;53.016;-2.260;2023-05-14T06:56:40;48.08;;;23.30;;
44670;SDS011;48397;53.016;-2.260;2023-05-14T06:59:07;41.20;;;20.60;;
44670;SDS011;48397;53.016;-2.260;2023-05-14T07:01:35;40.58;;;21.10;;
44670;SDS011;48397;53.016;-2.260;2023-05-14T07:04:04;44.85;;;20.38;;
44670;SDS011;48397;53.016;-2.260;2023-05-14T07:06:32;43.88;;;21.65;;
44670;SDS011;48397;53.016;-2.260;2023-05-14T07:09:00;45.60;;;21.25;;
44670;SDS011;48397;53.016;-2.260;2023-05-14T07:13:56;42.75;;;20.85;;
44670;SDS011;48397;53.016;-2.260;2023-05-14T07:16:23;43.28;;;20.77;;
44670;SDS011;48397;53.016;-2.260;2023-05-14T07:18:52;41.67;;;21.13;;
44670;SDS011;48397;53.016;-2.260;2023-05-14T07:21:19;43.35;;;21.33;;
44670;SDS011;48397;53.016;-2.260;2023-05-14T07:23:47;41.00;;;20.05;;
44670;SDS011;48397;53.016;-2.260;2023-05-14T07:26:15;38.42;;;19.67;;
44670;SDS011;48397;53.016;-2.260;2023-05-14T07:28:43;43.67;;;21.00;;
44670;SDS011;48397;53.016;-2.260;2023-05-14T07:33:39;40.90;;;20.42;;
44670;SDS011;48397;53.016;-2.260;2023-05-14T07:36:07;40.20;;;20.58;;
44670;SDS011;48397;53.016;-2.260;2023-05-14T07:38:35;39.38;;;18.98;;
44670;SDS011;48397;53.016;-2.260;2023-05-14T07:43:30;36.78;;;19.67;;
44670;SDS011;48397;53.016;-2.260;2023-05-14T07:45:58;36.38;;;18.80;;
44670;SDS011;48397;53.016;-2.260;2023-05-14T07:48:26;36.13;;;19.23;;
44670;SDS011;48397;53.016;-2.260;2023-05-14T07:52:31;36.53;;;17.52;;
44670;SDS011;48397;53.016;-2.260;2023-05-14T07:55:01;32.53;;;16.35;;
44670;SDS011;48397;53.016;-2.260;2023-05-14T07:57:29;31.10;;;16.92;;
44670;SDS011;48397;53.016;-2.260;2023-05-14T07:59:57;31.75;;;16.08;;
44670;SDS011;48397;53.016;-2.260;2023-05-14T08:02:24;34.95;;;18.15;;
44670;SDS011;48397;53.016;-2.260;2023-05-14T08:04:52;35.05;;;17.90;;
44670;SDS011;48397;53.016;-2.260;2023-05-14T08:07:20;28.77;;;14.75;;
44670;SDS011;48397;53.016;-2.260;2023-05-14T08:12:17;23.63;;;14.15;;
44670;SDS011;48397;53.016;-2.260;2023-05-14T08:14:44;32.83;;;16.13;;
44670;SDS011;48397;53.016;-2.260;2023-05-14T08:17:12;27.48;;;15.77;;
44670;SDS011;48397;53.016;-2.260;2023-05-14T08:19:40;27.65;;;14.43;;
44670;SDS011;48397;53.016;-2.260;2023-05-14T08:22:07;27.73;;;14.73;;
44670;SDS011;48397;53.016;-2.260;2023-05-14T08:24:35;24.83;;;14.20;;
44670;SDS011;48397;53.016;-2.260;2023-05-14T08:27:03;21.55;;;13.02;;
44670;SDS011;48397;53.016;-2.260;2023-05-14T08:31:58;22.10;;;11.75;;
44670;SDS011;48397;53.016;-2.260;2023-05-14T08:34:37;22.20;;;12.95;;
44670;SDS011;48397;53.016;-2.260;2023-05-14T08:37:05;27.17;;;13.98;;
44670;SDS011;48397;53.016;-2.260;2023-05-14T08:39:33;29.67;;;15.32;;
44670;SDS011;48397;53.016;-2.260;2023-05-14T08:42:01;24.77;;;13.23;;
44670;SDS011;48397;53.016;-2.260;2023-05-14T08:44:44;24.65;;;13.73;;
44670;SDS011;48397;53.016;-2.260;2023-05-14T08:47:17;24.02;;;12.88;;
44670;SDS011;48397;53.016;-2.260;2023-05-14T08:49:54;24.60;;;14.10;;
44670;SDS011;48397;53.016;-2.260;2023-05-14T08:52:28;26.35;;;13.25;;
44670;SDS011;48397;53.016;-2.260;2023-05-14T08:54:58;25.70;;;14.07;;
44670;SDS011;48397;53.016;-2.260;2023-05-14T08:57:27;24.95;;;14.10;;
44670;SDS011;48397;53.016;-2.260;2023-05-14T08:59:58;23.70;;;13.85;;
44670;SDS011;48397;53.016;-2.260;2023-05-14T09:02:27;23.67;;;13.38;;
44670;SDS011;48397;53.016;-2.260;2023-05-14T09:04:57;23.73;;;12.77;;
44670;SDS011;48397;53.016;-2.260;2023-05-14T09:07:25;25.20;;;13.57;;
44670;SDS011;48397;53.016;-2.260;2023-05-14T09:09:55;25.10;;;12.50;;
44670;SDS011;48397;53.016;-2.260;2023-05-14T09:12:22;20.92;;;12.80;;
44670;SDS011;48397;53.016;-2.260;2023-05-14T09:14:50;23.70;;;12.55;;
44670;SDS011;48397;53.016;-2.260;2023-05-14T09:17:18;21.73;;;10.43;;
44670;SDS011;48397;53.016;-2.260;2023-05-14T09:19:46;21.02;;;11.60;;
44670;SDS011;48397;53.016;-2.260;2023-05-14T09:22:16;23.98;;;13.60;;
44670;SDS011;48397;53.016;-2.260;2023-05-14T09:24:44;22.85;;;12.77;;
44670;SDS011;48397;53.016;-2.260;2023-05-14T09:27:18;23.08;;;13.27;;
44670;SDS011;48397;53.016;-2.260;2023-05-14T09:29:47;23.27;;;13.65;;
44670;SDS011;48397;53.016;-2.260;2023-05-14T09:37:10;17.92;;;11.23;;
44670;SDS011;48397;53.016;-2.260;2023-05-14T09:39:38;21.90;;;11.68;;
44670;SDS011;48397;53.016;-2.260;2023-05-14T09:42:06;16.17;;;10.82;;
44670;SDS011;48397;53.016;-2.260;2023-05-14T09:44:34;18.63;;;10.52;;
44670;SDS011;48397;53.016;-2.260;2023-05-14T09:47:04;22.35;;;11.95;;
44670;SDS011;48397;53.016;-2.260;2023-05-14T09:49:35;19.17;;;11.40;;
44670;SDS011;48397;53.016;-2.260;2023-05-14T09:52:03;18.20;;;10.82;;
44670;SDS011;48397;53.016;-2.260;2023-05-14T09:54:32;18.23;;;11.18;;
44670;SDS011;48397;53.016;-2.260;2023-05-14T09:57:01;17.27;;;10.93;;
44670;SDS011;48397;53.016;-2.260;2023-05-14T10:01:57;18.38;;;10.73;;
44670;SDS011;48397;53.016;-2.260;2023-05-14T10:04:25;15.75;;;9.73;;
44670;SDS011;48397;53.016;-2.260;2023-05-14T10:06:52;14.25;;;9.32;;
44670;SDS011;48397;53.016;-2.260;2023-05-14T10:09:23;12.70;;;7.22;;
44670;SDS011;48397;53.016;-2.260;2023-05-14T10:11:55;11.05;;;6.30;;
44670;SDS011;48397;53.016;-2.260;2023-05-14T10:14:32;13.65;;;7.60;;
44670;SDS011;48397;53.016;-2.260;2023-05-14T10:17:04;13.23;;;8.38;;
44670;SDS011;48397;53.016;-2.260;2023-05-14T10:19:33;14.07;;;7.35;;
44670;SDS011;48397;53.016;-2.260;2023-05-14T10:22:04;10.45;;;6.20;;
44670;SDS011;48397;53.016;-2.260;2023-05-14T10:24:33;11.25;;;5.38;;
44670;SDS011;48397;53.016;-2.260;2023-05-14T10:27:04;12.43;;;6.70;;
44670;SDS011;48397;53.016;-2.260;2023-05-14T10:29:33;8.93;;;5.40;;
44670;SDS011;48397;53.016;-2.260;2023-05-14T10:32:03;7.38;;;4.60;;
44670;SDS011;48397;53.016;-2.260;2023-05-14T10:34:33;8.50;;;4.72;;
44670;SDS011;48397;53.016;-2.260;2023-05-14T10:37:07;9.60;;;5.95;;
44670;SDS011;48397;53.016;-2.260;2023-05-14T10:39:52;11.70;;;6.68;;
44670;SDS011;48397;53.016;-2.260;2023-05-14T10:42:26;11.15;;;6.40;;
44670;SDS011;48397;53.016;-2.260;2023-05-14T10:44:59;9.63;;;6.03;;
44670;SDS011;48397;53.016;-2.260;2023-05-14T10:47:28;7.45;;;4.60;;
44670;SDS011;48397;53.016;-2.260;2023-05-14T10:49:57;6.75;;;3.97;;
44670;SDS011;48397;53.016;-2.260;2023-05-14T10:52:26;7.55;;;5.10;;
44670;SDS011;48397;53.016;-2.260;2023-05-14T10:54:56;7.93;;;4.55;;
44670;SDS011;48397;53.016;-2.260;2023-05-14T10:57:30;6.38;;;4.20;;
44670;SDS011;48397;53.016;-2.260;2023-05-14T10:59:58;9.80;;;5.38;;
44670;SDS011;48397;53.016;-2.260;2023-05-14T11:02:32;6.82;;;4.38;;
44670;SDS011;48397;53.016;-2.260;2023-05-14T11:05:04;8.15;;;5.03;;
44670;SDS011;48397;53.016;-2.260;2023-05-14T11:12:35;10.68;;;6.57;;
44670;SDS011;48397;53.016;-2.260;2023-05-14T11:15:08;10.02;;;5.97;;
44670;SDS011;48397;53.016;-2.260;2023-05-14T11:17:43;12.40;;;6.95;;
44670;SDS011;48397;53.016;-2.260;2023-05-14T11:20:12;4.97;;;3.17;;
44670;SDS011;48397;53.016;-2.260;2023-05-14T11:22:41;9.15;;;4.30;;
44670;SDS011;48397;53.016;-2.260;2023-05-14T11:25:10;8.02;;;4.60;;
44670;SDS011;48397;53.016;-2.260;2023-05-14T11:27:44;10.10;;;6.18;;
44670;SDS011;48397;53.016;-2.260;2023-05-14T11:30:15;8.48;;;5.50;;
44670;SDS011;48397;53.016;-2.260;2023-05-14T11:32:47;9.43;;;5.35;;
44670;SDS011;48397;53.016;-2.260;2023-05-14T11:35:15;8.65;;;5.15;;
44670;SDS011;48397;53.016;-2.260;2023-05-14T11:37:50;8.63;;;4.40;;
44670;SDS011;48397;53.016;-2.260;2023-05-14T11:40:18;8.15;;;5.10;;
44670;SDS011;48397;53.016;-2.260;2023-05-14T11:42:47;8.02;;;5.05;;
44670;SDS011;48397;53.016;-2.260;2023-05-14T11:45:24;7.10;;;4.50;;
44670;SDS011;48397;53.016;-2.260;2023-05-14T11:47:53;9.95;;;5.00;;
44670;SDS011;48397;53.016;-2.260;2023-05-14T11:50:21;6.95;;;4.50;;
44670;SDS011;48397;53.016;-2.260;2023-05-14T11:52:49;5.50;;;3.58;;
44670;SDS011;48397;53.016;-2.260;2023-05-14T11:55:17;6.60;;;4.00;;
44670;SDS011;48397;53.016;-2.260;2023-05-14T11:57:44;5.75;;;3.78;;
44670;SDS011;48397;53.016;-2.260;2023-05-14T12:06:00;4.22;;;2.45;;
44670;SDS011;48397;53.016;-2.260;2023-05-14T12:08:32;5.00;;;3.25;;
44670;SDS011;48397;53.016;-2.260;2023-05-14T12:11:00;4.85;;;3.05;;
44670;SDS011;48397;53.016;-2.260;2023-05-14T12:13:29;4.95;;;2.58;;
44670;SDS011;48397;53.016;-2.260;2023-05-14T12:15:59;4.07;;;2.05;;
44670;SDS011;48397;53.016;-2.260;2023-05-14T12:18:32;6.10;;;2.72;;
44670;SDS011;48397;53.016;-2.260;2023-05-14T12:21:03;3.92;;;2.88;;
44670;SDS011;48397;53.016;-2.260;2023-05-14T12:23:34;4.15;;;2.70;;
44670;SDS011;48397;53.016;-2.260;2023-05-14T12:26:04;3.92;;;2.28;;
44670;SDS011;48397;53.016;-2.260;2023-05-14T12:28:34;3.55;;;2.03;;
44670;SDS011;48397;53.016;-2.260;2023-05-14T12:31:04;2.88;;;2.00;;
44670;SDS011;48397;53.016;-2.260;2023-05-14T12:33:32;3.08;;;1.80;;
44670;SDS011;48397;53.016;-2.260;2023-05-14T12:36:00;3.53;;;1.80;;
44670;SDS011;48397;53.016;-2.260;2023-05-14T12:38:48;3.60;;;1.70;;
44670;SDS011;48397;53.016;-2.260;2023-05-14T12:41:16;3.95;;;1.60;;
44670;SDS011;48397;53.016;-2.260;2023-05-14T12:43:44;2.63;;;1.90;;
44670;SDS011;48397;53.016;-2.260;2023-05-14T12:46:13;2.53;;;1.65;;
44670;SDS011;48397;53.016;-2.260;2023-05-14T12:48:42;1.65;;;1.10;;
44670;SDS011;48397;53.016;-2.260;2023-05-14T12:51:10;2.65;;;1.52;;
44670;SDS011;48397;53.016;-2.260;2023-05-14T12:53:37;2.25;;;1.67;;
44670;SDS011;48397;53.016;-2.260;2023-05-14T12:56:05;3.67;;;1.45;;
44670;SDS011;48397;53.016;-2.260;2023-05-14T13:01:00;3.47;;;1.67;;
44670;SDS011;48397;53.016;-2.260;2023-05-14T13:03:28;2.10;;;1.60;;
44670;SDS011;48397;53.016;-2.260;2023-05-14T13:08:24;1.98;;;1.27;;
44670;SDS011;48397;53.016;-2.260;2023-05-14T13:10:52;2.90;;;1.40;;
44670;SDS011;48397;53.016;-2.260;2023-05-14T13:13:21;4.45;;;1.50;;
44670;SDS011;48397;53.016;-2.260;2023-05-14T13:15:50;3.03;;;1.50;;
44670;SDS011;48397;53.016;-2.260;2023-05-14T13:18:19;2.33;;;1.70;;
44670;SDS011;48397;53.016;-2.260;2023-05-14T13:20:47;2.78;;;2.00;;
44670;SDS011;48397;53.016;-2.260;2023-05-14T13:28:10;2.92;;;1.63;;
44670;SDS011;48397;53.016;-2.260;2023-05-14T13:33:05;3.67;;;2.30;;
44670;SDS011;48397;53.016;-2.260;2023-05-14T13:38:01;2.83;;;1.60;;
44670;SDS011;48397;53.016;-2.260;2023-05-14T13:40:28;3.53;;;1.73;;
44670;SDS011;48397;53.016;-2.260;2023-05-14T13:42:56;3.58;;;1.65;;
44670;SDS011;48397;53.016;-2.260;2023-05-14T13:47:51;2.47;;;1.90;;
44670;SDS011;48397;53.016;-2.260;2023-05-14T13:50:19;3.65;;;1.98;;
44670;SDS011;48397;53.016;-2.260;2023-05-14T13:52:48;3.13;;;2.05;;
44670;SDS011;48397;53.016;-2.260;2023-05-14T13:55:16;2.90;;;1.88;;
44670;SDS011;48397;53.016;-2.260;2023-05-14T13:57:44;2.50;;;1.85;;
44670;SDS011;48397;53.016;-2.260;2023-05-14T14:00:12;2.80;;;2.10;;
44670;SDS011;48397;53.016;-2.260;2023-05-14T14:02:42;3.17;;;2.20;;
44670;SDS011;48397;53.016;-2.260;2023-05-14T14:05:10;3.75;;;2.50;;
44670;SDS011;48397;53.016;-2.260;2023-05-14T14:07:38;4.57;;;2.92;;
44670;SDS011;48397;53.016;-2.260;2023-05-14T14:10:06;3.25;;;2.10;;
44670;SDS011;48397;53.016;-2.260;2023-05-14T14:12:34;3.63;;;2.00;;
44670;SDS011;48397;53.016;-2.260;2023-05-14T14:15:04;4.00;;;2.30;;
44670;SDS011;48397;53.016;-2.260;2023-05-14T14:17:32;3.78;;;2.22;;
44670;SDS011;48397;53.016;-2.260;2023-05-14T14:20:00;3.97;;;2.35;;
44670;SDS011;48397;53.016;-2.260;2023-05-14T14:22:29;2.83;;;2.22;;
44670;SDS011;48397;53.016;-2.260;2023-05-14T14:27:24;3.25;;;1.83;;
44670;SDS011;48397;53.016;-2.260;2023-05-14T14:29:52;3.28;;;2.10;;
44670;SDS011;48397;53.016;-2.260;2023-05-14T14:32:21;4.38;;;2.47;;
44670;SDS011;48397;53.016;-2.260;2023-05-14T14:34:48;4.53;;;2.47;;
44670;SDS011;48397;53.016;-2.260;2023-05-14T14:37:16;2.53;;;1.80;;
44670;SDS011;48397;53.016;-2.260;2023-05-14T14:39:44;2.65;;;2.00;;
44670;SDS011;48397;53.016;-2.260;2023-05-14T14:49:34;3.70;;;2.10;;
44670;SDS011;48397;53.016;-2.260;2023-05-14T14:52:04;2.60;;;1.92;;
44670;SDS011;48397;53.016;-2.260;2023-05-14T14:54:31;2.03;;;1.60;;
44670;SDS011;48397;53.016;-2.260;2023-05-14T14:59:41;2.65;;;1.85;;
44670;SDS011;48397;53.016;-2.260;2023-05-14T15:02:09;2.47;;;1.38;;
44670;SDS011;48397;53.016;-2.260;2023-05-14T15:04:37;3.90;;;1.98;;
44670;SDS011;48397;53.016;-2.260;2023-05-14T15:07:04;2.65;;;1.75;;
44670;SDS011;48397;53.016;-2.260;2023-05-14T15:09:34;3.85;;;2.03;;
44670;SDS011;48397;53.016;-2.260;2023-05-14T15:14:30;3.25;;;2.10;;
44670;SDS011;48397;53.016;-2.260;2023-05-14T15:16:57;2.42;;;1.65;;
44670;SDS011;48397;53.016;-2.260;2023-05-14T15:19:25;2.90;;;1.50;;
44670;SDS011;48397;53.016;-2.260;2023-05-14T15:24:20;3.13;;;1.70;;
44670;SDS011;48397;53.016;-2.260;2023-05-14T15:26:49;2.88;;;1.45;;
44670;SDS011;48397;53.016;-2.260;2023-05-14T15:29:19;2.80;;;1.80;;
44670;SDS011;48397;53.016;-2.260;2023-05-14T15:34:15;3.42;;;1.95;;
44670;SDS011;48397;53.016;-2.260;2023-05-14T15:36:42;4.05;;;1.83;;
44670;SDS011;48397;53.016;-2.260;2023-05-14T15:39:10;2.50;;;1.80;;
44670;SDS011;48397;53.016;-2.260;2023-05-14T15:41:38;2.55;;;2.00;;
44670;SDS011;48397;53.016;-2.260;2023-05-14T15:44:06;4.05;;;2.05;;
44670;SDS011;48397;53.016;-2.260;2023-05-14T15:46:36;4.25;;;1.80;;
44670;SDS011;48397;53.016;-2.260;2023-05-14T15:49:12;3.70;;;2.03;;
44670;SDS011;48397;53.016;-2.260;2023-05-14T15:51:40;2.45;;;1.50;;
44670;SDS011;48397;53.016;-2.260;2023-05-14T15:54:09;3.72;;;1.80;;